Accueil
METAR-TAF:

METAR-TAF

Aéroports :

Base aérienne de l'OTAN de Geilenkirchen

Geilenkirchen, Allemagne

latitude: 50-57-39N, longitude: 006-2-33E, altitude: 90 m

METAR: absent

Heure: 21:00 (20:00 UTC)

Prévision

Le bulletin a été fait il y a 30 minutes, à 19:30 UTC
Prévision valable du 27 à 18 UTC au 28 à 09 UTC
Vent 8 kt de sud-est
Visibilité 10 km ou plus
Nuages épars à une hauteur de 2000 ft
Nuages fragmentés à une hauteur de 3000 ft
pluie faible
Temporairement
du 27 à 18 UTC au 28 à 09 UTC
Vent 15 kt de sud/sud-est
Visibilité: 5000 m
Nuages fragmentés à une hauteur de 1500 ft
Ciel couvert à une hauteur de 3000 ft
pluie

TAF: ETNG 271930Z 2718/2809 14008KT 9999 -RA SCT020 BKN030 TEMPO 2718/2809 16015KT 5000 RA BKN015 OVC030 RMK NO SURVEILLANCE DUE TO AUTO OBS BY ETGL

Observations et prévisions météorologiques de plus de 4000 aéroports (messages METAR et TAF).

Les stations disponibles sont représentées par des disques jaunes et rouges sur la carte.

Passer la souris dessus pour voir le nom de la station.

Cliquer dessus pour voir les observations et prévisions météorologiques.

Pour changer de carte: cliquez sur les boutons verts avec une croix noire pour zoomer, sur le bouton vert avec un tiret pour effectuer un zoom arrière, ou sur les flèches vertes pour les cartes adjacentes.


METAR-TAF: